Time;durP1;ratioP1;P1;durP2;ratioP2;P2;SDS_P1;SDS_P2;PMS_P1;PMS_P2;Temp;Humidity;BMP_temperature;BMP_pressure;BME280_temperature;BME280_humidity;BME280_pressure;Samples;Min_cycle;Max_cycle;Signal;HPM_P1;HPM_P2
2022/02/06 00:02:34;;;;;;;3.53;0.43;;;;;;;;;;10424753;28;20040;-78
2022/02/06 00:07:39;;;;;;;3.63;1.20;;;;;;;;;;10448422;28;20351;-77
2022/02/06 00:12:42;;;;;;;0.70;0.40;;;;;;;;;;10431083;28;20037;-77
2022/02/06 00:17:47;;;;;;;2.53;0.90;;;;;;;;;;10424465;28;20068;-77
2022/02/06 00:22:53;;;;;;;;;;;;;;;;;;10429666;28;20057;-78
2022/02/06 00:28:17;;;;;;;5.27;1.27;;;;;;;;;;10419446;28;19921;-78
2022/02/06 00:33:34;;;;;;;5.97;1.23;;;;;;;;;;10441197;28;20379;-78
2022/02/06 00:43:55;;;;;;;7.57;1.40;;;;;;;;;;10436429;28;20404;-77
2022/02/06 00:49:01;;;;;;;3.00;0.90;;;;;;;;;;10458405;28;20036;-81
2022/02/06 00:54:04;;;;;;;1.53;0.57;;;;;;;;;;10459678;28;20040;-78
2022/02/06 00:59:09;;;;;;;1.37;0.63;;;;;;;;;;10444449;28;20482;-78
2022/02/06 01:04:11;;;;;;;;;;;;;;;;;;10447865;28;20033;-79
2022/02/06 01:09:15;;;;;;;6.83;1.70;;;;;;;;;;10461187;28;19977;-78
2022/02/06 01:14:30;;;;;;;1.10;0.60;;;;;;;;;;10458845;28;20037;-78
2022/02/06 01:19:42;;;;;;;;;;;;;;;;;;10448385;28;20140;-79
2022/02/06 01:24:55;;;;;;;1.37;0.70;;;;;;;;;;10443890;28;19924;-78
2022/02/06 01:30:10;;;;;;;0.87;0.63;;;;;;;;;;10440733;28;20115;-80
2022/02/06 01:35:17;;;;;;;1.20;0.57;;;;;;;;;;10441429;28;20322;-79
2022/02/06 01:40:31;;;;;;;1.20;0.50;;;;;;;;;;10421687;28;20040;-80
2022/02/06 01:46:02;;;;;;;1.13;0.52;;;;;;;;;;10436246;28;20039;-80
2022/02/06 02:02:10;;;;;;;5.60;1.20;;;;;;;;;;10427674;28;20088;-80
2022/02/06 02:18:23;;;;;;;0.73;0.50;;;;;;;;;;10342928;28;20087;-79
2022/02/06 02:23:50;;;;;;;0.43;0.33;;;;;;;;;;10433742;28;20920;-79
2022/02/06 02:45:14;;;;;;;0.67;0.53;;;;;;;;;;10434828;28;20103;-80
2022/02/06 02:50:20;;;;;;;1.97;0.93;;;;;;;;;;10458714;28;20037;-80
2022/02/06 02:55:39;;;;;;;9.57;1.00;;;;;;;;;;10444703;28;20145;-82
2022/02/06 03:00:49;;;;;;;3.53;1.03;;;;;;;;;;10443794;28;20041;-80
2022/02/06 03:05:54;;;;;;;2.43;0.83;;;;;;;;;;10447843;28;20931;-80
2022/02/06 03:11:02;;;;;;;0.50;0.20;;;;;;;;;;10448007;28;20041;-80
2022/02/06 03:16:18;;;;;;;1.37;0.23;;;;;;;;;;10419685;28;20466;-79
2022/02/06 03:21:24;;;;;;;0.60;0.30;;;;;;;;;;10434806;28;20040;-79
2022/02/06 03:26:29;;;;;;;0.67;0.20;;;;;;;;;;10456046;28;20112;-78
2022/02/06 03:31:32;;;;;;;;;;;;;;;;;;10442341;28;20045;-79
2022/02/06 03:36:35;;;;;;;1.00;0.57;;;;;;;;;;10437176;28;20529;-79
2022/02/06 03:41:53;;;;;;;2.03;0.60;;;;;;;;;;10434117;28;20081;-81
2022/02/06 03:47:07;;;;;;;0.97;0.77;;;;;;;;;;10411358;28;20498;-79
2022/02/06 03:52:10;;;;;;;1.45;0.68;;;;;;;;;;10418571;28;20088;-80
2022/02/06 03:57:14;;;;;;;2.93;0.50;;;;;;;;;;10433957;28;20036;-79
2022/02/06 04:02:17;;;;;;;;;;;;;;;;;;10419487;28;20040;-78
2022/02/06 04:07:20;;;;;;;0.20;0.20;;;;;;;;;;10415639;28;19974;-78
2022/02/06 04:12:25;;;;;;;1.83;0.50;;;;;;;;;;10435199;28;20135;-78
2022/02/06 04:17:35;;;;;;;1.60;0.77;;;;;;;;;;10431550;28;20504;-79
2022/02/06 04:22:38;;;;;;;2.07;0.50;;;;;;;;;;10441475;28;20037;-78
2022/02/06 04:27:43;;;;;;;1.93;0.33;;;;;;;;;;10439919;28;20517;-79
2022/02/06 04:32:46;;;;;;;1.43;0.33;;;;;;;;;;10424852;28;20071;-80
2022/02/06 04:38:05;;;;;;;;;;;;;;;;;;10437094;28;20826;-78
2022/02/06 04:49:00;;;;;;;0.20;0.20;;;;;;;;;;10434403;28;20494;-78
2022/02/06 04:54:32;;;;;;;0.63;0.40;;;;;;;;;;10459996;28;20056;-78
2022/02/06 05:15:58;;;;;;;1.53;0.47;;;;;;;;;;10411391;28;20120;-79
2022/02/06 05:21:35;;;;;;;0.30;0.20;;;;;;;;;;10431047;28;20099;-79
2022/02/06 05:32:18;;;;;;;1.83;0.70;;;;;;;;;;10411343;28;20107;-79
2022/02/06 05:37:25;;;;;;;5.80;1.23;;;;;;;;;;10441828;28;20037;-79
2022/02/06 05:42:27;;;;;;;2.67;0.90;;;;;;;;;;10442129;28;20556;-81
2022/02/06 05:47:33;;;;;;;0.70;0.50;;;;;;;;;;10449884;28;21678;-80
2022/02/06 05:52:36;;;;;;;3.43;0.70;;;;;;;;;;10433145;28;20136;-79
2022/02/06 05:57:39;;;;;;;2.63;0.50;;;;;;;;;;10443315;28;20053;-81
2022/02/06 06:02:43;;;;;;;1.83;0.50;;;;;;;;;;10429261;28;20037;-80
2022/02/06 06:07:46;;;;;;;;;;;;;;;;;;10430067;28;20040;-80
2022/02/06 06:12:56;;;;;;;3.20;0.93;;;;;;;;;;10422196;28;19987;-81
2022/02/06 06:18:06;;;;;;;0.60;0.33;;;;;;;;;;10446056;28;20135;-81
2022/02/06 06:23:09;;;;;;;1.60;0.50;;;;;;;;;;10444698;28;20071;-81
2022/02/06 06:28:13;;;;;;;1.35;0.75;;;;;;;;;;10446797;28;20041;-80
2022/02/06 06:33:17;;;;;;;2.40;0.68;;;;;;;;;;10425675;28;20041;-82
2022/02/06 06:38:32;;;;;;;2.17;0.30;;;;;;;;;;10443792;28;20025;-81
2022/02/06 06:43:35;;;;;;;1.37;0.47;;;;;;;;;;10442221;28;20060;-80
2022/02/06 06:48:40;;;;;;;4.27;0.80;;;;;;;;;;10428912;28;20767;-81
2022/02/06 06:53:45;;;;;;;5.20;0.87;;;;;;;;;;10447478;28;20140;-82
2022/02/06 06:58:51;;;;;;;2.73;0.50;;;;;;;;;;10451688;28;20083;-82
2022/02/06 07:03:56;;;;;;;1.03;0.40;;;;;;;;;;10446174;28;20060;-80
2022/02/06 07:09:25;;;;;;;3.93;0.47;;;;;;;;;;10453518;28;20028;-82
2022/02/06 07:14:29;;;;;;;0.40;0.20;;;;;;;;;;10436713;28;20038;-81
2022/02/06 07:19:33;;;;;;;6.00;0.63;;;;;;;;;;10439128;28;20037;-84
2022/02/06 07:24:37;;;;;;;4.73;0.60;;;;;;;;;;10439795;28;20104;-80
2022/02/06 07:29:41;;;;;;;0.55;0.40;;;;;;;;;;10431672;28;20131;-80
2022/02/06 07:34:46;;;;;;;2.25;0.68;;;;;;;;;;10428675;28;20454;-81
2022/02/06 07:39:49;;;;;;;0.60;0.35;;;;;;;;;;10453450;28;20114;-80
2022/02/06 07:44:55;;;;;;;0.93;0.40;;;;;;;;;;10443760;28;20037;-79
2022/02/06 07:50:03;;;;;;;0.83;0.33;;;;;;;;;;10427367;28;20021;-80
2022/02/06 07:55:07;;;;;;;2.93;0.70;;;;;;;;;;10435561;28;20045;-80
2022/02/06 08:00:12;;;;;;;0.93;0.40;;;;;;;;;;10449736;28;20041;-81
2022/02/06 08:05:18;;;;;;;0.33;0.33;;;;;;;;;;10475329;28;20135;-81
2022/02/06 08:10:22;;;;;;;0.93;0.40;;;;;;;;;;10462790;28;20041;-80
2022/02/06 08:15:25;;;;;;;1.92;0.60;;;;;;;;;;10459150;28;20033;-78
2022/02/06 08:20:30;;;;;;;1.65;0.80;;;;;;;;;;10467507;28;20053;-81
2022/02/06 08:25:34;;;;;;;2.05;0.80;;;;;;;;;;10485720;28;20025;-80
2022/02/06 08:30:38;;;;;;;1.40;0.80;;;;;;;;;;10466835;28;20049;-80
2022/02/06 08:35:45;;;;;;;2.15;1.05;;;;;;;;;;10475997;28;20029;-80
2022/02/06 08:40:49;;;;;;;1.45;1.02;;;;;;;;;;10479306;28;20037;-80
2022/02/06 08:45:52;;;;;;;3.22;1.23;;;;;;;;;;10478633;28;20029;-82
2022/02/06 08:51:00;;;;;;;1.08;0.57;;;;;;;;;;10484004;28;20040;-79
2022/02/06 08:56:03;;;;;;;2.03;0.60;;;;;;;;;;10468869;28;20098;-80
2022/02/06 09:01:06;;;;;;;4.13;1.03;;;;;;;;;;10493805;28;20054;-81
2022/02/06 09:06:12;;;;;;;2.10;0.85;;;;;;;;;;10458620;28;20287;-80
2022/02/06 09:11:16;;;;;;;1.90;0.85;;;;;;;;;;10461178;28;20067;-80
2022/02/06 09:16:22;;;;;;;6.32;1.40;;;;;;;;;;10471472;28;20045;-82
2022/02/06 09:21:28;;;;;;;2.22;1.02;;;;;;;;;;10473325;28;20037;-82
2022/02/06 09:26:32;;;;;;;0.90;0.50;;;;;;;;;;10482397;28;20029;-81
2022/02/06 09:31:36;;;;;;;2.47;1.30;;;;;;;;;;10463379;28;20262;-77
2022/02/06 09:36:42;;;;;;;2.20;0.82;;;;;;;;;;10467027;28;20030;-77
2022/02/06 09:41:47;;;;;;;7.07;1.83;;;;;;;;;;10461823;28;20880;-77
2022/02/06 09:46:50;;;;;;;7.80;1.15;;;;;;;;;;10467382;28;20053;-75
2022/02/06 09:51:55;;;;;;;3.77;1.17;;;;;;;;;;10479714;28;20029;-76
2022/02/06 09:57:00;;;;;;;2.13;0.63;;;;;;;;;;10467207;28;20288;-76
2022/02/06 10:02:05;;;;;;;2.13;1.10;;;;;;;;;;10488189;28;20048;-76
2022/02/06 10:07:10;;;;;;;2.05;1.05;;;;;;;;;;10468721;28;20025;-77
2022/02/06 10:12:15;;;;;;;1.10;1.00;;;;;;;;;;10484260;28;20041;-74
2022/02/06 10:17:18;;;;;;;0.98;0.88;;;;;;;;;;10465142;28;20063;-76
2022/02/06 10:22:26;;;;;;;3.63;1.50;;;;;;;;;;10466264;28;20075;-75
2022/02/06 10:27:48;;;;;;;4.05;1.50;;;;;;;;;;10464324;28;20112;-77
2022/02/06 10:32:52;;;;;;;2.95;1.25;;;;;;;;;;10466234;28;20094;-76
2022/02/06 10:37:56;;;;;;;2.33;1.15;;;;;;;;;;10476820;28;20112;-78
2022/02/06 10:43:09;;;;;;;3.88;1.45;;;;;;;;;;10424209;28;20056;-75
2022/02/06 10:48:20;;;;;;;1.08;0.85;;;;;;;;;;10452966;28;20076;-77
2022/02/06 10:53:25;;;;;;;4.28;1.63;;;;;;;;;;10436895;28;20494;-76
2022/02/06 10:58:34;;;;;;;2.92;1.20;;;;;;;;;;10463910;28;20032;-77
2022/02/06 11:03:39;;;;;;;1.38;0.80;;;;;;;;;;10428465;28;20563;-77
2022/02/06 11:08:43;;;;;;;3.10;0.85;;;;;;;;;;10459920;22;20056;-71
2022/02/06 11:13:46;;;;;;;2.13;1.48;;;;;;;;;;10438518;28;20446;-72
2022/02/06 11:18:50;;;;;;;4.70;1.40;;;;;;;;;;10394511;28;20033;-71
2022/02/06 11:23:55;;;;;;;3.45;1.27;;;;;;;;;;10456254;22;20043;-76
2022/02/06 11:28:59;;;;;;;1.42;0.93;;;;;;;;;;10440155;28;20033;-79
2022/02/06 11:34:03;;;;;;;2.72;1.25;;;;;;;;;;10431461;28;20033;-76
2022/02/06 11:44:57;;;;;;;3.45;1.23;;;;;;;;;;10429948;28;20461;-78
2022/02/06 11:50:05;;;;;;;5.72;1.60;;;;;;;;;;10444092;28;20025;-76
2022/02/06 11:55:30;;;;;;;3.03;1.08;;;;;;;;;;10434590;28;20501;-75
2022/02/06 12:00:32;;;;;;;;;;;;;;;;;;10438259;28;20028;-76
2022/02/06 12:05:36;;;;;;;2.70;1.15;;;;;;;;;;10421604;28;20300;-79
2022/02/06 12:10:58;;;;;;;3.10;1.00;;;;;;;;;;10438161;28;20037;-78
2022/02/06 12:16:04;;;;;;;1.90;0.85;;;;;;;;;;10449780;28;20715;-78
2022/02/06 12:21:12;;;;;;;2.00;1.00;;;;;;;;;;10428651;28;20033;-77
2022/02/06 12:26:40;;;;;;;3.25;0.85;;;;;;;;;;10447970;28;20620;-78
2022/02/06 12:31:52;;;;;;;2.03;1.00;;;;;;;;;;10438231;28;20037;-76
2022/02/06 12:37:07;;;;;;;2.65;0.55;;;;;;;;;;10428253;28;20045;-77
2022/02/06 12:42:16;;;;;;;1.25;0.70;;;;;;;;;;10438621;28;20041;-77
2022/02/06 12:47:22;;;;;;;1.85;0.75;;;;;;;;;;10425233;28;20523;-77
2022/02/06 12:52:25;;;;;;;3.78;1.60;;;;;;;;;;10437442;28;20052;-78
2022/02/06 12:57:29;;;;;;;1.73;0.93;;;;;;;;;;10437140;28;20064;-80
2022/02/06 13:02:35;;;;;;;1.90;0.87;;;;;;;;;;10423226;28;20313;-78
2022/02/06 13:07:42;;;;;;;3.28;1.08;;;;;;;;;;10421864;28;20167;-78
2022/02/06 13:12:51;;;;;;;2.70;1.02;;;;;;;;;;10417121;28;20425;-78
2022/02/06 13:18:19;;;;;;;5.45;1.30;;;;;;;;;;10457133;28;20037;-77
2022/02/06 13:23:30;;;;;;;3.83;0.90;;;;;;;;;;10442571;28;20037;-77
2022/02/06 13:28:52;;;;;;;2.00;0.55;;;;;;;;;;10433297;28;20044;-77
2022/02/06 13:34:04;;;;;;;4.38;1.08;;;;;;;;;;10435703;28;20141;-78
2022/02/06 13:39:11;;;;;;;2.92;1.15;;;;;;;;;;10413629;28;20045;-76
2022/02/06 13:44:23;;;;;;;2.08;0.80;;;;;;;;;;10437256;28;20111;-77
2022/02/06 13:49:36;;;;;;;0.80;0.60;;;;;;;;;;10426429;28;20113;-76
2022/02/06 13:54:42;;;;;;;1.88;0.90;;;;;;;;;;10424340;28;20045;-77
2022/02/06 13:59:47;;;;;;;1.58;0.43;;;;;;;;;;10431012;28;20250;-74
2022/02/06 14:04:52;;;;;;;2.10;0.60;;;;;;;;;;10436770;28;20041;-75
2022/02/06 14:10:01;;;;;;;0.50;0.30;;;;;;;;;;10446605;28;20041;-77
2022/02/06 14:15:05;;;;;;;1.80;0.95;;;;;;;;;;10437874;28;20063;-77
2022/02/06 14:20:14;;;;;;;2.63;0.95;;;;;;;;;;10453488;28;20095;-75
2022/02/06 14:25:24;;;;;;;4.13;1.33;;;;;;;;;;10437944;28;20045;-74
2022/02/06 14:30:28;;;;;;;3.13;0.98;;;;;;;;;;10453230;28;20041;-75
2022/02/06 14:35:39;;;;;;;2.85;0.63;;;;;;;;;;10453327;28;20136;-76
2022/02/06 14:40:51;;;;;;;3.33;0.82;;;;;;;;;;10451901;28;20105;-76
2022/02/06 14:45:55;;;;;;;2.42;0.70;;;;;;;;;;10454508;28;20041;-75
2022/02/06 14:50:59;;;;;;;2.60;1.10;;;;;;;;;;10449756;28;20106;-76
2022/02/06 14:56:04;;;;;;;5.53;1.00;;;;;;;;;;10459588;28;20041;-77
2022/02/06 15:01:07;;;;;;;1.17;0.70;;;;;;;;;;10455020;28;20064;-77
2022/02/06 15:06:12;;;;;;;2.28;0.82;;;;;;;;;;10442376;28;20045;-76
2022/02/06 15:11:15;;;;;;;2.70;0.88;;;;;;;;;;10463473;28;20560;-76
2022/02/06 15:16:22;;;;;;;3.33;1.50;;;;;;;;;;10430197;28;20037;-74
2022/02/06 15:21:26;;;;;;;2.92;0.95;;;;;;;;;;10420363;28;20037;-76
2022/02/06 15:26:29;;;;;;;2.77;1.37;;;;;;;;;;10450589;28;20044;-76
2022/02/06 15:31:32;;;;;;;3.83;1.20;;;;;;;;;;10436414;28;20029;-76
2022/02/06 15:36:53;;;;;;;2.22;1.10;;;;;;;;;;10480702;28;20040;-76
2022/02/06 15:41:57;;;;;;;3.00;1.10;;;;;;;;;;10444040;28;20179;-75
2022/02/06 15:46:59;;;;;;;2.53;0.80;;;;;;;;;;10436498;28;20100;-78
2022/02/06 15:52:04;;;;;;;3.17;1.20;;;;;;;;;;10685057;22;20056;-76
2022/02/06 15:57:08;;;;;;;4.63;0.93;;;;;;;;;;10428525;28;20094;-76
2022/02/06 16:02:11;;;;;;;1.60;0.70;;;;;;;;;;10400959;28;20052;-75
2022/02/06 16:07:15;;;;;;;2.27;0.87;;;;;;;;;;10385737;28;20092;-78
2022/02/06 16:12:19;;;;;;;;;;;;;;;;;;10387217;28;20497;-74
2022/02/06 16:17:22;;;;;;;5.47;1.90;;;;;;;;;;10387162;28;20001;-75
2022/02/06 16:22:26;;;;;;;2.13;0.80;;;;;;;;;;10369573;28;20037;-76
2022/02/06 16:27:29;;;;;;;;;;;;;;;;;;10377045;28;20127;-74
2022/02/06 16:32:32;;;;;;;4.20;0.90;;;;;;;;;;10385472;28;19921;-74
2022/02/06 16:37:37;;;;;;;0.50;0.32;;;;;;;;;;10385020;28;20041;-74
2022/02/06 16:42:42;;;;;;;;;;;;;;;;;;10369037;28;20497;-74
2022/02/06 16:47:45;;;;;;;0.80;0.70;;;;;;;;;;10383590;28;19960;-73
2022/02/06 16:52:50;;;;;;;1.53;0.83;;;;;;;;;;10368795;28;20057;-72
2022/02/06 16:57:53;;;;;;;1.73;0.93;;;;;;;;;;10385039;28;20042;-73
2022/02/06 17:02:56;;;;;;;2.43;1.30;;;;;;;;;;10386716;28;20099;-75
2022/02/06 17:08:02;;;;;;;2.60;1.43;;;;;;;;;;10375773;28;20095;-73
2022/02/06 17:13:05;;;;;;;1.10;0.60;;;;;;;;;;10392695;28;20065;-73
2022/02/06 17:18:07;;;;;;;2.07;0.83;;;;;;;;;;10388642;28;20046;-72
2022/02/06 17:23:12;;;;;;;0.60;0.50;;;;;;;;;;10386551;28;20042;-74
2022/02/06 17:28:14;;;;;;;;;;;;;;;;;;10367041;28;20049;-73
2022/02/06 17:33:20;;;;;;;3.00;1.23;;;;;;;;;;10371200;28;19924;-73
2022/02/06 17:38:27;;;;;;;2.10;0.50;;;;;;;;;;10366355;28;20577;-73
2022/02/06 17:43:30;;;;;;;1.77;1.10;;;;;;;;;;10368888;28;20033;-73
2022/02/06 17:48:37;;;;;;;1.10;0.70;;;;;;;;;;10384370;28;20045;-74
2022/02/06 17:53:42;;;;;;;0.70;0.43;;;;;;;;;;10388392;28;20099;-75
2022/02/06 17:58:45;;;;;;;1.40;0.63;;;;;;;;;;10376685;28;20105;-73
2022/02/06 18:03:48;;;;;;;1.43;0.90;;;;;;;;;;10392788;28;20439;-74
2022/02/06 18:08:53;;;;;;;1.83;0.80;;;;;;;;;;10373855;28;20045;-73
2022/02/06 18:13:58;;;;;;;2.30;0.60;;;;;;;;;;10393616;28;20479;-73
2022/02/06 18:19:01;;;;;;;0.57;0.43;;;;;;;;;;10377805;28;20064;-73
2022/02/06 18:24:05;;;;;;;0.90;0.70;;;;;;;;;;10369197;28;20045;-73
2022/02/06 18:29:28;;;;;;;2.75;0.60;;;;;;;;;;10371864;28;20045;-73
2022/02/06 18:34:31;;;;;;;1.37;0.57;;;;;;;;;;10378411;28;20049;-73
2022/02/06 18:39:36;;;;;;;0.63;0.30;;;;;;;;;;10389107;28;20037;-73
2022/02/06 18:44:38;;;;;;;;;;;;;;;;;;10394575;28;20292;-72
2022/02/06 18:49:42;;;;;;;1.90;0.90;;;;;;;;;;10389796;28;19982;-73
2022/02/06 18:54:47;;;;;;;0.38;0.30;;;;;;;;;;10373840;28;20034;-72
2022/02/06 18:59:55;;;;;;;0.63;0.40;;;;;;;;;;10412017;22;20037;-70
2022/02/06 19:05:00;;;;;;;0.60;0.60;;;;;;;;;;10424881;28;20050;-69
2022/02/06 19:10:05;;;;;;;1.00;0.30;;;;;;;;;;10443742;28;20098;-69
2022/02/06 19:15:08;;;;;;;0.50;0.50;;;;;;;;;;10443629;22;20099;-78
2022/02/06 19:20:11;;;;;;;0.67;0.50;;;;;;;;;;10439161;28;20037;-79
2022/02/06 19:25:15;;;;;;;2.37;0.50;;;;;;;;;;10422428;28;20037;-77
2022/02/06 19:30:18;;;;;;;;;;;;;;;;;;10404686;28;20052;-77
2022/02/06 19:35:25;;;;;;;2.10;0.40;;;;;;;;;;10418127;28;19921;-77
2022/02/06 19:40:30;;;;;;;0.60;0.60;;;;;;;;;;10401909;28;20155;-78
2022/02/06 19:45:35;;;;;;;2.33;0.52;;;;;;;;;;10423272;28;20112;-78
2022/02/06 19:50:38;;;;;;;0.30;0.30;;;;;;;;;;10419565;28;20041;-77
2022/02/06 19:55:43;;;;;;;0.93;0.60;;;;;;;;;;10423106;28;20045;-76
2022/02/06 20:00:47;;;;;;;0.80;0.50;;;;;;;;;;10421440;28;20037;-78
2022/02/06 20:05:50;;;;;;;2.03;0.60;;;;;;;;;;10425457;28;20106;-78
2022/02/06 20:10:54;;;;;;;0.63;0.60;;;;;;;;;;10423179;28;20068;-76
2022/02/06 20:15:59;;;;;;;2.33;0.40;;;;;;;;;;10401379;28;20451;-77
2022/02/06 20:21:02;;;;;;;0.30;0.30;;;;;;;;;;10413134;28;20029;-78
2022/02/06 20:26:06;;;;;;;0.40;0.30;;;;;;;;;;10414203;28;20499;-77
2022/02/06 20:31:10;;;;;;;0.43;0.35;;;;;;;;;;10405066;28;20079;-77
2022/02/06 20:36:16;;;;;;;0.27;0.20;;;;;;;;;;10413043;28;20048;-76
2022/02/06 20:41:21;;;;;;;0.38;0.38;;;;;;;;;;10397373;28;20125;-76
2022/02/06 20:46:24;;;;;;;0.90;0.35;;;;;;;;;;10416914;28;20128;-77
2022/02/06 20:51:27;;;;;;;0.40;0.33;;;;;;;;;;10405485;28;20033;-76
2022/02/06 20:56:31;;;;;;;0.83;0.30;;;;;;;;;;10406650;28;20071;-77
2022/02/06 21:01:34;;;;;;;;;;;;;;;;;;10417278;28;20037;-77
2022/02/06 21:06:37;;;;;;;1.17;0.20;;;;;;;;;;10400534;28;19925;-76
2022/02/06 21:11:41;;;;;;;0.45;0.20;;;;;;;;;;10406218;28;20319;-76
2022/02/06 21:16:44;;;;;;;0.20;0.20;;;;;;;;;;10421929;28;20064;-79
2022/02/06 21:21:46;;;;;;;0.20;0.10;;;;;;;;;;10399943;28;20041;-76
2022/02/06 21:26:51;;;;;;;0.45;0.40;;;;;;;;;;10408611;28;20080;-77
2022/02/06 21:31:53;;;;;;;;;;;;;;;;;;10400248;28;20404;-76
2022/02/06 21:36:56;;;;;;;0.10;0.10;;;;;;;;;;10409476;28;19925;-75
2022/02/06 21:42:00;;;;;;;0.40;0.20;;;;;;;;;;10409713;28;20029;-75
2022/02/06 21:47:03;;;;;;;;;;;;;;;;;;10430507;28;20068;-76
2022/02/06 21:52:06;;;;;;;0.33;0.30;;;;;;;;;;10425668;28;19967;-75
2022/02/06 21:57:12;;;;;;;0.33;0.30;;;;;;;;;;10404559;28;20041;-76
2022/02/06 22:02:15;;;;;;;0.63;0.20;;;;;;;;;;10423559;28;20128;-77
2022/02/06 22:07:30;;;;;;;0.40;0.20;;;;;;;;;;10413039;28;20493;-76
2022/02/06 22:23:41;;;;;;;0.28;0.20;;;;;;;;;;10412805;28;20037;-77
2022/02/06 22:28:54;;;;;;;0.75;0.30;;;;;;;;;;10414977;28;20029;-76
2022/02/06 22:33:57;;;;;;;0.28;0.20;;;;;;;;;;10398597;28;20068;-77
2022/02/06 22:39:00;;;;;;;0.47;0.17;;;;;;;;;;10405807;28;20468;-77
2022/02/06 22:44:04;;;;;;;0.03;0.03;;;;;;;;;;10421889;28;20622;-77
2022/02/06 22:49:07;;;;;;;0.20;0.10;;;;;;;;;;10397973;28;20448;-76
2022/02/06 22:54:13;;;;;;;0.00;0.00;;;;;;;;;;10407894;28;20684;-76
2022/02/06 22:59:17;;;;;;;0.00;0.00;;;;;;;;;;10405750;28;20068;-76
2022/02/06 23:04:20;;;;;;;;;;;;;;;;;;10405282;28;20060;-76
2022/02/06 23:09:25;;;;;;;0.17;0.10;;;;;;;;;;10410042;28;19925;-76
2022/02/06 23:14:32;;;;;;;0.10;0.10;;;;;;;;;;10411994;28;20044;-75
2022/02/06 23:19:35;;;;;;;0.10;0.10;;;;;;;;;;10414076;28;20034;-75
2022/02/06 23:24:38;;;;;;;0.03;0.03;;;;;;;;;;10419497;28;20037;-76
2022/02/06 23:29:42;;;;;;;0.00;0.00;;;;;;;;;;10416804;28;20049;-77
2022/02/06 23:34:45;;;;;;;0.00;0.00;;;;;;;;;;10415368;28;20033;-77
2022/02/06 23:39:52;;;;;;;0.10;0.10;;;;;;;;;;10433558;28;20076;-76
2022/02/06 23:44:57;;;;;;;0.60;0.33;;;;;;;;;;10411379;28;20049;-78
2022/02/06 23:50:00;;;;;;;0.57;0.20;;;;;;;;;;10421090;28;20063;-75
2022/02/06 23:55:11;;;;;;;0.07;0.00;;;;;;;;;;10411695;28;20064;-78
